F/V Lagardere II — FING — position and weather

sailwx.info

Track history (hours):
 
Tides and Currents Weather Stations Pressure Air Temp Water Temp Dewpoint Dewpoint Depression Visibility Wind Speed Wind Dir Waves Ship Positions

F/V Lagardere II

Last reported at 2018-May-22 17:31 UTC. Time now 2018-May-22 17:57 UTC.
Position N 43°55' W 001°59'.

; draft 3.7 m.

Type: Fishing. MMSI: 228110800.

Date/timePositionNaut miles runAvg speedWind from/ knotsBaromVisibWave heightAir tempDewpointWater temp
2018-May-22 17:31N 43°55' W 001°59'4 8.3
2018-May-22 17:01N 43°51' W 001°59'4 8.3
2018-May-22 16:30N 43°47' W 001°59'4 8.4
2018-May-22 16:00N 43°42' W 001°59'4 8.3
2018-May-22 15:31N 43°38' W 001°59'4 8.1
2018-May-22 15:00N 43°34' W 001°58'4 8.0
2018-May-22 14:30N 43°30' W 001°58'4 8.0
2018-May-22 14:01N 43°26' W 001°58'4 7.1
2018-May-22 13:30N 43°23' W 001°59'2 4.7
2018-May-22 13:01N 43°21' W 001°57'2 4.0
2018-May-22 12:30N 43°19' W 001°55'0 0.0
2018-May-22 12:00N 43°19' W 001°55'0 0.0
2018-May-22 11:30N 43°19' W 001°55'0 0.0
2018-May-21 18:21N 43°19' W 001°55'0 0.1
2018-May-21 18:00N 43°19' W 001°55'0 1.0
2018-May-21 17:30N 43°19' W 001°56'0 0.0
2018-May-21 17:00N 43°19' W 001°56'0 0.0
2018-May-21 16:29N 43°19' W 001°56'1 1.2
2018-May-21 16:00N 43°19' W 001°55'0 0.0
2018-May-21 15:30N 43°19' W 001°55'3 6.8
2018-May-21 15:00N 43°23' W 001°55'4 8.4
2018-May-21 14:30N 43°27' W 001°55'4 8.3
2018-May-21 14:00N 43°31' W 001°54'4 8.4
2018-May-21 13:30N 43°35' W 001°54'4 8.3
2018-May-21 13:00N 43°39' W 001°53'4 8.4
2018-May-21 12:30N 43°43' W 001°53'4 8.2
2018-May-21 12:00N 43°48' W 001°53'4 8.1
2018-May-21 11:30N 43°52' W 001°52'4 7.2
2018-May-21 11:00N 43°55' W 001°52'4 7.8
2018-May-21 10:30N 43°59' W 001°51'4 8.1
2018-May-21 10:00N 44°03' W 001°50'4 7.7
2018-May-21 09:30N 44°07' W 001°49'4 7.9
2018-May-21 09:00N 44°11' W 001°48'4 7.6
2018-May-21 08:30N 44°14' W 001°46'4 7.1
2018-May-21 08:00N 44°18' W 001°45'4 7.1
2018-May-21 07:30N 44°21' W 001°45'2 4.0
2018-May-21 07:00N 44°23' W 001°45'2 3.3
2018-May-21 06:30N 44°25' W 001°45'2 3.3
2018-May-21 06:00N 44°27' W 001°45'2 3.3
2018-May-21 05:30N 44°28' W 001°45'2 3.3
2018-May-21 05:00N 44°30' W 001°46'2 3.3
2018-May-21 04:30N 44°32' W 001°46'2 3.3
2018-May-21 04:00N 44°33' W 001°46'2 3.2
2018-May-21 03:30N 44°34' W 001°48'2 3.5
2018-May-21 03:00N 44°34' W 001°51'3 6.1
2018-May-21 02:30N 44°34' W 001°55'1 1.4
2018-May-21 02:00N 44°34' W 001°56'1 2.7
2018-May-21 01:30N 44°34' W 001°58'2 3.1
2018-May-21 01:00N 44°36' W 001°58'2 3.2
2018-May-21 00:30N 44°37' W 001°58'2 3.0
2018-May-21 00:00N 44°39' W 001°57'1 2.9
2018-May-20 23:30N 44°37' W 001°56'2 3.1
2018-May-20 23:00N 44°36' W 001°56'1 2.8
2018-May-20 22:30N 44°34' W 001°57'1 2.5
2018-May-20 22:00N 44°35' W 001°58'2 3.3
2018-May-20 21:30N 44°37' W 001°58'2 3.5
2018-May-20 21:00N 44°38' W 001°57'2 3.6
2018-May-20 20:30N 44°40' W 001°56'1 1.1
2018-May-20 20:00N 44°40' W 001°56'2 3.0
2018-May-20 19:30N 44°38' W 001°56'1 3.0
2018-May-20 19:00N 44°37' W 001°56'1 2.9
2018-May-20 18:30N 44°35' W 001°56'1 2.8
2018-May-20 18:00N 44°34' W 001°57'2 3.1
2018-May-20 17:30N 44°33' W 001°59'1 2.9
2018-May-20 17:00N 44°32' W 001°60'1 2.9
2018-May-20 16:30N 44°30' W 002°00'1 2.8
2018-May-20 16:00N 44°29' W 002°02'1 2.9
2018-May-20 15:30N 44°28' W 002°02'1 1.3
2018-May-20 15:00N 44°27' W 002°02'1 2.9
2018-May-20 14:30N 44°26' W 002°01'1 2.2
2018-May-20 14:00N 44°27' W 002°00'2 3.2
2018-May-20 13:30N 44°28' W 002°00'2 3.2
2018-May-20 13:00N 44°30' W 002°00'2 3.2
2018-May-20 12:30N 44°32' W 002°00'2 3.1
2018-May-20 12:00N 44°33' W 001°60'2 3.0
2018-May-20 11:30N 44°35' W 002°00'1 1.1
2018-May-20 10:52N 44°35' W 001°60'1 3.1
2018-May-20 10:29N 44°34' W 001°60'1 3.1
2018-May-20 10:00N 44°33' W 001°60'2 3.1
2018-May-20 09:30N 44°31' W 001°60'1 3.0
2018-May-20 09:00N 44°30' W 002°00'2 3.0
2018-May-20 08:29N 44°28' W 002°00'1 3.0
2018-May-20 08:00N 44°27' W 002°00'2 3.0
2018-May-20 07:30N 44°25' W 002°00'1 2.1
2018-May-20 07:00N 44°24' W 002°00'1 2.2
2018-May-20 06:30N 44°25' W 002°00'2 3.3
2018-May-20 06:00N 44°27' W 002°00'2 3.4
2018-May-20 05:30N 44°29' W 002°00'2 3.4
2018-May-20 05:00N 44°30' W 001°60'2 3.5
2018-May-20 04:30N 44°32' W 001°60'2 3.4
2018-May-20 04:00N 44°33' W 001°58'2 3.4
2018-May-20 03:30N 44°34' W 001°57'2 3.4
2018-May-20 03:00N 44°36' W 001°56'2 3.6
2018-May-20 02:30N 44°38' W 001°56'2 3.5
2018-May-20 02:00N 44°40' W 001°56'1 1.8
2018-May-20 01:30N 44°39' W 001°56'2 3.1
2018-May-20 01:00N 44°37' W 001°56'2 3.1
2018-May-20 00:30N 44°36' W 001°56'1 2.8
2018-May-20 00:00N 44°34' W 001°56'1 2.7
2018-May-19 23:30N 44°35' W 001°58'2 3.2
2018-May-19 23:00N 44°37' W 001°58'2 3.3
2018-May-19 22:30N 44°38' W 001°58'1 2.6
2018-May-19 22:00N 44°38' W 001°56'2 3.1
2018-May-19 21:30N 44°36' W 001°56'2 3.2
2018-May-19 21:00N 44°35' W 001°56'2 3.2
2018-May-19 20:30N 44°34' W 001°54'1 2.5
2018-May-19 20:00N 44°35' W 001°54'2 3.3
2018-May-19 19:30N 44°37' W 001°55'1 2.9
2018-May-19 19:00N 44°38' W 001°53'1 2.8
2018-May-19 18:30N 44°38' W 001°51'2 3.0
2018-May-19 18:00N 44°36' W 001°51'1 3.0
2018-May-19 17:30N 44°35' W 001°51'1 2.6
2018-May-19 17:00N 44°34' W 001°53'1 3.0
2018-May-19 16:30N 44°34' W 001°55'2 3.6
2018-May-19 16:00N 44°36' W 001°54'2 3.4
2018-May-19 15:30N 44°37' W 001°56'1 1.1
2018-May-19 15:00N 44°36' W 001°56'2 3.0
2018-May-19 14:30N 44°35' W 001°56'1 2.4
2018-May-19 14:00N 44°35' W 001°58'2 3.4
2018-May-19 13:30N 44°36' W 001°58'2 3.3
2018-May-19 13:00N 44°38' W 001°58'1 2.5
2018-May-19 12:30N 44°38' W 001°56'2 3.1
2018-May-19 12:00N 44°36' W 001°56'2 3.1
2018-May-19 11:30N 44°35' W 001°57'1 1.9
2018-May-19 11:00N 44°34' W 001°58'1 2.7
2018-May-19 10:30N 44°36' W 001°58'2 3.5
2018-May-19 10:00N 44°37' W 001°58'2 3.1
2018-May-19 09:30N 44°38' W 001°56'1 3.0
2018-May-19 09:00N 44°37' W 001°56'2 3.1
2018-May-19 08:30N 44°35' W 001°56'1 2.9
2018-May-19 08:00N 44°34' W 001°57'2 3.1
2018-May-19 07:30N 44°33' W 001°59'1 2.2
2018-May-19 07:00N 44°32' W 002°00'1 2.4
2018-May-19 06:30N 44°34' W 002°00'2 3.2
2018-May-19 06:00N 44°35' W 002°00'2 3.2
2018-May-19 05:30N 44°37' W 001°60'2 3.1
2018-May-19 05:00N 44°38' W 001°59'2 3.0
2018-May-19 04:30N 44°40' W 002°00'2 3.1
2018-May-19 04:00N 44°41' W 002°00'2 3.1
2018-May-19 03:30N 44°42' W 002°02'2 3.2
2018-May-19 03:00N 44°44' W 002°03'1 2.9
2018-May-19 02:30N 44°45' W 002°04'1 2.8
2018-May-19 02:00N 44°46' W 002°04'1 1.9
2018-May-19 01:30N 44°47' W 002°04'1 2.8
2018-May-19 01:00N 44°49' W 002°05'1 2.8
2018-May-19 00:30N 44°50' W 002°05'1 2.8
2018-May-19 00:00N 44°51' W 002°06'1 2.7
2018-May-18 23:30N 44°52' W 002°07'2 3.1
2018-May-18 23:00N 44°52' W 002°10'1 2.6
2018-May-18 22:30N 44°52' W 002°11'1 2.8
2018-May-18 22:00N 44°54' W 002°12'1 2.9
2018-May-18 21:30N 44°55' W 002°14'1 2.9
2018-May-18 21:00N 44°56' W 002°15'1 2.8
2018-May-18 20:30N 44°57' W 002°16'1 2.1
2018-May-18 20:00N 44°58' W 002°16'1 1.3
2018-May-18 19:30N 44°58' W 002°16'1 2.9
2018-May-18 19:00N 44°56' W 002°15'1 2.9
2018-May-18 18:30N 44°55' W 002°14'2 3.0
2018-May-18 18:00N 44°54' W 002°13'1 3.0
2018-May-18 17:30N 44°53' W 002°11'1 2.7
2018-May-18 17:00N 44°52' W 002°10'2 3.1
2018-May-18 16:30N 44°52' W 002°08'2 2.6
2018-May-18 15:49N 44°51' W 002°06'1 2.9
2018-May-18 15:30N 44°50' W 002°05'7 2.2
2018-May-18 12:14N 44°57' W 002°06'21 1.8
2018-May-18 00:38N 44°50' W 001°38'1 3.3
2018-May-18 00:28N 44°50' W 001°39'1 0.3
2018-May-17 21:25N 44°51' W 001°38'1 2.4
2018-May-17 21:00N 44°50' W 001°39'2 3.1
2018-May-17 20:27N 44°51' W 001°40'2 3.0
2018-May-17 19:44N 44°53' W 001°40'1 3.7
2018-May-17 19:30N 44°54' W 001°40'7 3.3
2018-May-17 17:27N 44°52' W 001°31'2 3.5
2018-May-17 16:50N 44°50' W 001°31'1 3.5
2018-May-17 16:30N 44°49' W 001°31'2 3.3
2018-May-17 15:56N 44°48' W 001°29'1 3.3
2018-May-17 15:30N 44°47' W 001°28'1 2.7
2018-May-17 15:00N 44°45' W 001°28'2 3.2
2018-May-17 14:30N 44°44' W 001°28'2 3.2
2018-May-17 14:00N 44°42' W 001°28'2 3.2
2018-May-17 13:30N 44°40' W 001°28'2 3.4
2018-May-17 13:00N 44°39' W 001°28'2 3.3
2018-May-17 12:30N 44°37' W 001°27'2 3.4
2018-May-17 12:00N 44°36' W 001°26'2 3.5
2018-May-17 11:30N 44°34' W 001°26'3 5.7
2018-May-17 11:00N 44°31' W 001°25'2 3.4
2018-May-17 10:30N 44°29' W 001°25'2 3.6
2018-May-17 10:00N 44°28' W 001°26'3 3.6
2018-May-17 09:07N 44°25' W 001°26'0 3.6
2018-May-17 09:00N 44°24' W 001°26'2 3.5
2018-May-17 08:30N 44°22' W 001°26'32 5.2
2018-May-17 02:18N 43°52' W 001°40'10 8.0
2018-May-17 01:04N 43°43' W 001°45'1 8.0
2018-May-17 00:58N 43°42' W 001°45'4 7.9
2018-May-17 00:30N 43°39' W 001°47'4 7.9
2018-May-17 00:00N 43°35' W 001°49'4 8.1
2018-May-16 23:30N 43°31' W 001°50'4 8.1
2018-May-16 23:00N 43°27' W 001°52'4 8.4
2018-May-16 22:29N 43°23' W 001°54'3 5.5
2018-May-16 22:00N 43°21' W 001°56'1 2.9
2018-May-16 21:30N 43°19' W 001°55'0 0.0
2018-May-16 21:00N 43°19' W 001°55'0 0.0
2018-May-16 20:30N 43°19' W 001°55'0 0.0
2018-May-16 20:00N 43°19' W 001°55'0 0.0
2018-May-16 19:30N 43°19' W 001°55'0 0.0
2018-May-16 19:00N 43°19' W 001°55'0 0.0
2018-May-16 18:30N 43°19' W 001°55'0 0.2
2018-May-16 16:17N 43°19' W 001°56'1 2.0
2018-May-16 16:00N 43°19' W 001°55'0 0.0
2018-May-16 15:30N 43°19' W 001°55'2 3.5
2018-May-16 15:00N 43°21' W 001°56'4 8.7
2018-May-16 14:30N 43°25' W 001°57'4 8.8
2018-May-16 14:00N 43°30' W 001°57'4 8.7
2018-May-16 13:30N 43°34' W 001°57'4 8.7
2018-May-16 13:00N 43°38' W 001°59'4 8.6
2018-May-16 12:30N 43°42' W 001°60'4 7.6
2018-May-16 12:00N 43°46' W 002°00'3 6.0
2018-May-16 11:30N 43°49' W 002°00'2 3.2
2018-May-16 11:00N 43°50' W 001°58'1 2.7
2018-May-16 10:30N 43°48' W 001°58'1 2.8
2018-May-16 10:00N 43°50' W 001°57'2 3.2
2018-May-16 09:30N 43°51' W 001°57'2 3.2
2018-May-16 09:00N 43°53' W 001°56'2 3.2
2018-May-16 08:30N 43°54' W 001°56'2 3.2
2018-May-16 08:00N 43°56' W 001°56'2 3.3
2018-May-16 07:30N 43°58' W 001°55'1 2.9
2018-May-16 07:00N 43°59' W 001°56'1 2.0
2018-May-16 06:30N 44°00' W 001°56'1 3.0
2018-May-16 06:00N 44°01' W 001°56'2 3.0
2018-May-16 05:30N 44°03' W 001°56'2 3.1
2018-May-16 05:00N 44°05' W 001°56'2 3.1
2018-May-16 04:30N 44°06' W 001°56'2 3.2
2018-May-16 04:00N 44°08' W 001°56'2 3.1
2018-May-16 03:30N 44°09' W 001°57'2 3.1
2018-May-16 03:00N 44°11' W 001°57'2 3.3
2018-May-16 02:29N 44°12' W 001°57'2 3.6
2018-May-16 02:00N 44°14' W 001°58'1 2.2
2018-May-16 01:30N 44°15' W 001°57'2 3.4
2018-May-16 01:00N 44°17' W 001°57'2 3.4
2018-May-16 00:29N 44°19' W 001°57'2 3.4
2018-May-16 00:00N 44°20' W 001°57'9 1.2
2018-May-15 16:29N 44°28' W 002°02'1 3.1
2018-May-15 16:00N 44°27' W 002°02'13 2.7
2018-May-15 11:11N 44°14' W 001°57'0 0.7
2018-May-15 11:00N 44°15' W 001°57'2 3.0
2018-May-15 10:29N 44°16' W 001°57'19 2.1
2018-May-15 01:28N 44°35' W 002°01'14 2.8
2018-May-14 20:35N 44°21' W 002°00'0 0.6
2018-May-14 20:30N 44°21' W 002°00'  
Track history (hours):
 
Tides and Currents Weather Stations Pressure Air Temp Water Temp Dewpoint Dewpoint Depression Visibility Wind Speed Wind Dir Waves Ship Positions

F/V Lagardere II

Last reported at 2018-May-22 17:31 UTC. Time now 2018-May-22 17:57 UTC.
Position N 43°55' W 001°59'.

; draft 3.7 m.

Type: Fishing. MMSI: 228110800.

Date/timePositionNaut miles runAvg speedWind from/ knotsBaromVisibWave heightAir tempDewpointWater temp
2018-May-22 17:31N 43°55' W 001°59'4 8.3
2018-May-22 17:01N 43°51' W 001°59'4 8.3
2018-May-22 16:30N 43°47' W 001°59'4 8.4
2018-May-22 16:00N 43°42' W 001°59'4 8.3
2018-May-22 15:31N 43°38' W 001°59'4 8.1
2018-May-22 15:00N 43°34' W 001°58'4 8.0
2018-May-22 14:30N 43°30' W 001°58'4 8.0
2018-May-22 14:01N 43°26' W 001°58'4 7.1
2018-May-22 13:30N 43°23' W 001°59'2 4.7
2018-May-22 13:01N 43°21' W 001°57'2 4.0
2018-May-22 12:30N 43°19' W 001°55'0 0.0
2018-May-22 12:00N 43°19' W 001°55'0 0.0
2018-May-22 11:30N 43°19' W 001°55'0 0.0
2018-May-21 18:21N 43°19' W 001°55'0 0.1
2018-May-21 18:00N 43°19' W 001°55'0 1.0
2018-May-21 17:30N 43°19' W 001°56'0 0.0
2018-May-21 17:00N 43°19' W 001°56'0 0.0
2018-May-21 16:29N 43°19' W 001°56'1 1.2
2018-May-21 16:00N 43°19' W 001°55'0 0.0
2018-May-21 15:30N 43°19' W 001°55'3 6.8
2018-May-21 15:00N 43°23' W 001°55'4 8.4
2018-May-21 14:30N 43°27' W 001°55'4 8.3
2018-May-21 14:00N 43°31' W 001°54'4 8.4
2018-May-21 13:30N 43°35' W 001°54'4 8.3
2018-May-21 13:00N 43°39' W 001°53'4 8.4
2018-May-21 12:30N 43°43' W 001°53'4 8.2
2018-May-21 12:00N 43°48' W 001°53'4 8.1
2018-May-21 11:30N 43°52' W 001°52'4 7.2
2018-May-21 11:00N 43°55' W 001°52'4 7.8
2018-May-21 10:30N 43°59' W 001°51'4 8.1
2018-May-21 10:00N 44°03' W 001°50'4 7.7
2018-May-21 09:30N 44°07' W 001°49'4 7.9
2018-May-21 09:00N 44°11' W 001°48'4 7.6
2018-May-21 08:30N 44°14' W 001°46'4 7.1
2018-May-21 08:00N 44°18' W 001°45'4 7.1
2018-May-21 07:30N 44°21' W 001°45'2 4.0
2018-May-21 07:00N 44°23' W 001°45'2 3.3
2018-May-21 06:30N 44°25' W 001°45'2 3.3
2018-May-21 06:00N 44°27' W 001°45'2 3.3
2018-May-21 05:30N 44°28' W 001°45'2 3.3
2018-May-21 05:00N 44°30' W 001°46'2 3.3
2018-May-21 04:30N 44°32' W 001°46'2 3.3
2018-May-21 04:00N 44°33' W 001°46'2 3.2
2018-May-21 03:30N 44°34' W 001°48'2 3.5
2018-May-21 03:00N 44°34' W 001°51'3 6.1
2018-May-21 02:30N 44°34' W 001°55'1 1.4
2018-May-21 02:00N 44°34' W 001°56'1 2.7
2018-May-21 01:30N 44°34' W 001°58'2 3.1
2018-May-21 01:00N 44°36' W 001°58'2 3.2
2018-May-21 00:30N 44°37' W 001°58'2 3.0
2018-May-21 00:00N 44°39' W 001°57'1 2.9
2018-May-20 23:30N 44°37' W 001°56'2 3.1
2018-May-20 23:00N 44°36' W 001°56'1 2.8
2018-May-20 22:30N 44°34' W 001°57'1 2.5
2018-May-20 22:00N 44°35' W 001°58'2 3.3
2018-May-20 21:30N 44°37' W 001°58'2 3.5
2018-May-20 21:00N 44°38' W 001°57'2 3.6
2018-May-20 20:30N 44°40' W 001°56'1 1.1
2018-May-20 20:00N 44°40' W 001°56'2 3.0
2018-May-20 19:30N 44°38' W 001°56'1 3.0
2018-May-20 19:00N 44°37' W 001°56'1 2.9
2018-May-20 18:30N 44°35' W 001°56'1 2.8
2018-May-20 18:00N 44°34' W 001°57'2 3.1
2018-May-20 17:30N 44°33' W 001°59'1 2.9
2018-May-20 17:00N 44°32' W 001°60'1 2.9
2018-May-20 16:30N 44°30' W 002°00'1 2.8
2018-May-20 16:00N 44°29' W 002°02'1 2.9
2018-May-20 15:30N 44°28' W 002°02'1 1.3
2018-May-20 15:00N 44°27' W 002°02'1 2.9
2018-May-20 14:30N 44°26' W 002°01'1 2.2
2018-May-20 14:00N 44°27' W 002°00'2 3.2
2018-May-20 13:30N 44°28' W 002°00'2 3.2
2018-May-20 13:00N 44°30' W 002°00'2 3.2
2018-May-20 12:30N 44°32' W 002°00'2 3.1
2018-May-20 12:00N 44°33' W 001°60'2 3.0
2018-May-20 11:30N 44°35' W 002°00'1 1.1
2018-May-20 10:52N 44°35' W 001°60'1 3.1
2018-May-20 10:29N 44°34' W 001°60'1 3.1
2018-May-20 10:00N 44°33' W 001°60'2 3.1
2018-May-20 09:30N 44°31' W 001°60'1 3.0
2018-May-20 09:00N 44°30' W 002°00'2 3.0
2018-May-20 08:29N 44°28' W 002°00'1 3.0
2018-May-20 08:00N 44°27' W 002°00'2 3.0
2018-May-20 07:30N 44°25' W 002°00'1 2.1
2018-May-20 07:00N 44°24' W 002°00'1 2.2
2018-May-20 06:30N 44°25' W 002°00'2 3.3
2018-May-20 06:00N 44°27' W 002°00'2 3.4
2018-May-20 05:30N 44°29' W 002°00'2 3.4
2018-May-20 05:00N 44°30' W 001°60'2 3.5
2018-May-20 04:30N 44°32' W 001°60'2 3.4
2018-May-20 04:00N 44°33' W 001°58'2 3.4
2018-May-20 03:30N 44°34' W 001°57'2 3.4
2018-May-20 03:00N 44°36' W 001°56'2 3.6
2018-May-20 02:30N 44°38' W 001°56'2 3.5
2018-May-20 02:00N 44°40' W 001°56'1 1.8
2018-May-20 01:30N 44°39' W 001°56'2 3.1
2018-May-20 01:00N 44°37' W 001°56'2 3.1
2018-May-20 00:30N 44°36' W 001°56'1 2.8
2018-May-20 00:00N 44°34' W 001°56'1 2.7
2018-May-19 23:30N 44°35' W 001°58'2 3.2
2018-May-19 23:00N 44°37' W 001°58'2 3.3
2018-May-19 22:30N 44°38' W 001°58'1 2.6
2018-May-19 22:00N 44°38' W 001°56'2 3.1
2018-May-19 21:30N 44°36' W 001°56'2 3.2
2018-May-19 21:00N 44°35' W 001°56'2 3.2
2018-May-19 20:30N 44°34' W 001°54'1 2.5
2018-May-19 20:00N 44°35' W 001°54'2 3.3
2018-May-19 19:30N 44°37' W 001°55'1 2.9
2018-May-19 19:00N 44°38' W 001°53'1 2.8
2018-May-19 18:30N 44°38' W 001°51'2 3.0
2018-May-19 18:00N 44°36' W 001°51'1 3.0
2018-May-19 17:30N 44°35' W 001°51'1 2.6
2018-May-19 17:00N 44°34' W 001°53'1 3.0
2018-May-19 16:30N 44°34' W 001°55'2 3.6
2018-May-19 16:00N 44°36' W 001°54'2 3.4
2018-May-19 15:30N 44°37' W 001°56'1 1.1
2018-May-19 15:00N 44°36' W 001°56'2 3.0
2018-May-19 14:30N 44°35' W 001°56'1 2.4
2018-May-19 14:00N 44°35' W 001°58'2 3.4
2018-May-19 13:30N 44°36' W 001°58'2 3.3
2018-May-19 13:00N 44°38' W 001°58'1 2.5
2018-May-19 12:30N 44°38' W 001°56'2 3.1
2018-May-19 12:00N 44°36' W 001°56'2 3.1
2018-May-19 11:30N 44°35' W 001°57'1 1.9
2018-May-19 11:00N 44°34' W 001°58'1 2.7
2018-May-19 10:30N 44°36' W 001°58'2 3.5
2018-May-19 10:00N 44°37' W 001°58'2 3.1
2018-May-19 09:30N 44°38' W 001°56'1 3.0
2018-May-19 09:00N 44°37' W 001°56'2 3.1
2018-May-19 08:30N 44°35' W 001°56'1 2.9
2018-May-19 08:00N 44°34' W 001°57'2 3.1
2018-May-19 07:30N 44°33' W 001°59'1 2.2
2018-May-19 07:00N 44°32' W 002°00'1 2.4
2018-May-19 06:30N 44°34' W 002°00'2 3.2
2018-May-19 06:00N 44°35' W 002°00'2 3.2
2018-May-19 05:30N 44°37' W 001°60'2 3.1
2018-May-19 05:00N 44°38' W 001°59'2 3.0
2018-May-19 04:30N 44°40' W 002°00'2 3.1
2018-May-19 04:00N 44°41' W 002°00'2 3.1
2018-May-19 03:30N 44°42' W 002°02'2 3.2
2018-May-19 03:00N 44°44' W 002°03'1 2.9
2018-May-19 02:30N 44°45' W 002°04'1 2.8
2018-May-19 02:00N 44°46' W 002°04'1 1.9
2018-May-19 01:30N 44°47' W 002°04'1 2.8
2018-May-19 01:00N 44°49' W 002°05'1 2.8
2018-May-19 00:30N 44°50' W 002°05'1 2.8
2018-May-19 00:00N 44°51' W 002°06'1 2.7
2018-May-18 23:30N 44°52' W 002°07'2 3.1
2018-May-18 23:00N 44°52' W 002°10'1 2.6
2018-May-18 22:30N 44°52' W 002°11'1 2.8
2018-May-18 22:00N 44°54' W 002°12'1 2.9
2018-May-18 21:30N 44°55' W 002°14'1 2.9
2018-May-18 21:00N 44°56' W 002°15'1 2.8
2018-May-18 20:30N 44°57' W 002°16'1 2.1
2018-May-18 20:00N 44°58' W 002°16'1 1.3
2018-May-18 19:30N 44°58' W 002°16'1 2.9
2018-May-18 19:00N 44°56' W 002°15'1 2.9
2018-May-18 18:30N 44°55' W 002°14'2 3.0
2018-May-18 18:00N 44°54' W 002°13'1 3.0
2018-May-18 17:30N 44°53' W 002°11'1 2.7
2018-May-18 17:00N 44°52' W 002°10'2 3.1
2018-May-18 16:30N 44°52' W 002°08'2 2.6
2018-May-18 15:49N 44°51' W 002°06'1 2.9
2018-May-18 15:30N 44°50' W 002°05'7 2.2
2018-May-18 12:14N 44°57' W 002°06'21 1.8
2018-May-18 00:38N 44°50' W 001°38'1 3.3
2018-May-18 00:28N 44°50' W 001°39'1 0.3
2018-May-17 21:25N 44°51' W 001°38'1 2.4
2018-May-17 21:00N 44°50' W 001°39'2 3.1
2018-May-17 20:27N 44°51' W 001°40'2 3.0
2018-May-17 19:44N 44°53' W 001°40'1 3.7
2018-May-17 19:30N 44°54' W 001°40'7 3.3
2018-May-17 17:27N 44°52' W 001°31'2 3.5
2018-May-17 16:50N 44°50' W 001°31'1 3.5
2018-May-17 16:30N 44°49' W 001°31'2 3.3
2018-May-17 15:56N 44°48' W 001°29'1 3.3
2018-May-17 15:30N 44°47' W 001°28'1 2.7
2018-May-17 15:00N 44°45' W 001°28'2 3.2
2018-May-17 14:30N 44°44' W 001°28'2 3.2
2018-May-17 14:00N 44°42' W 001°28'2 3.2
2018-May-17 13:30N 44°40' W 001°28'2 3.4
2018-May-17 13:00N 44°39' W 001°28'2 3.3
2018-May-17 12:30N 44°37' W 001°27'2 3.4
2018-May-17 12:00N 44°36' W 001°26'2 3.5
2018-May-17 11:30N 44°34' W 001°26'3 5.7
2018-May-17 11:00N 44°31' W 001°25'2 3.4
2018-May-17 10:30N 44°29' W 001°25'2 3.6
2018-May-17 10:00N 44°28' W 001°26'3 3.6
2018-May-17 09:07N 44°25' W 001°26'0 3.6
2018-May-17 09:00N 44°24' W 001°26'2 3.5
2018-May-17 08:30N 44°22' W 001°26'32 5.2
2018-May-17 02:18N 43°52' W 001°40'10 8.0
2018-May-17 01:04N 43°43' W 001°45'1 8.0
2018-May-17 00:58N 43°42' W 001°45'4 7.9
2018-May-17 00:30N 43°39' W 001°47'4 7.9
2018-May-17 00:00N 43°35' W 001°49'4 8.1
2018-May-16 23:30N 43°31' W 001°50'4 8.1
2018-May-16 23:00N 43°27' W 001°52'4 8.4
2018-May-16 22:29N 43°23' W 001°54'3 5.5
2018-May-16 22:00N 43°21' W 001°56'1 2.9
2018-May-16 21:30N 43°19' W 001°55'0 0.0
2018-May-16 21:00N 43°19' W 001°55'0 0.0
2018-May-16 20:30N 43°19' W 001°55'0 0.0
2018-May-16 20:00N 43°19' W 001°55'0 0.0
2018-May-16 19:30N 43°19' W 001°55'0 0.0
2018-May-16 19:00N 43°19' W 001°55'0 0.0
2018-May-16 18:30N 43°19' W 001°55'0 0.2
2018-May-16 16:17N 43°19' W 001°56'1 2.0
2018-May-16 16:00N 43°19' W 001°55'0 0.0
2018-May-16 15:30N 43°19' W 001°55'2 3.5
2018-May-16 15:00N 43°21' W 001°56'4 8.7
2018-May-16 14:30N 43°25' W 001°57'4 8.8
2018-May-16 14:00N 43°30' W 001°57'4 8.7
2018-May-16 13:30N 43°34' W 001°57'4 8.7
2018-May-16 13:00N 43°38' W 001°59'4 8.6
2018-May-16 12:30N 43°42' W 001°60'4 7.6
2018-May-16 12:00N 43°46' W 002°00'3 6.0
2018-May-16 11:30N 43°49' W 002°00'2 3.2
2018-May-16 11:00N 43°50' W 001°58'1 2.7
2018-May-16 10:30N 43°48' W 001°58'1 2.8
2018-May-16 10:00N 43°50' W 001°57'2 3.2
2018-May-16 09:30N 43°51' W 001°57'2 3.2
2018-May-16 09:00N 43°53' W 001°56'2 3.2
2018-May-16 08:30N 43°54' W 001°56'2 3.2
2018-May-16 08:00N 43°56' W 001°56'2 3.3
2018-May-16 07:30N 43°58' W 001°55'1 2.9
2018-May-16 07:00N 43°59' W 001°56'1 2.0
2018-May-16 06:30N 44°00' W 001°56'1 3.0
2018-May-16 06:00N 44°01' W 001°56'2 3.0
2018-May-16 05:30N 44°03' W 001°56'2 3.1
2018-May-16 05:00N 44°05' W 001°56'2 3.1
2018-May-16 04:30N 44°06' W 001°56'2 3.2
2018-May-16 04:00N 44°08' W 001°56'2 3.1
2018-May-16 03:30N 44°09' W 001°57'2 3.1
2018-May-16 03:00N 44°11' W 001°57'2 3.3
2018-May-16 02:29N 44°12' W 001°57'2 3.6
2018-May-16 02:00N 44°14' W 001°58'1 2.2
2018-May-16 01:30N 44°15' W 001°57'2 3.4
2018-May-16 01:00N 44°17' W 001°57'2 3.4
2018-May-16 00:29N 44°19' W 001°57'2 3.4
2018-May-16 00:00N 44°20' W 001°57'9 1.2
2018-May-15 16:29N 44°28' W 002°02'1 3.1
2018-May-15 16:00N 44°27' W 002°02'13 2.7
2018-May-15 11:11N 44°14' W 001°57'0 0.7
2018-May-15 11:00N 44°15' W 001°57'2 3.0
2018-May-15 10:29N 44°16' W 001°57'19 2.1
2018-May-15 01:28N 44°35' W 002°01'14 2.8
2018-May-14 20:35N 44°21' W 002°00'0 0.6
2018-May-14 20:30N 44°21' W 002°00'  

Dump ship's entire track history